Time;durP1;ratioP1;P1;durP2;ratioP2;P2;SDS_P1;SDS_P2;PMS_P1;PMS_P2;Temp;Humidity;BMP_temperature;BMP_pressure;BME280_temperature;BME280_humidity;BME280_pressure;Samples;Min_cycle;Max_cycle;Signal;HPM_P1;HPM_P2
2021/05/24 00:02:11;;;;;;;;;;;;;;;8.76;67.88;101209.22;1738933;81;20194;-74
2021/05/24 00:04:37;;;;;;;;;;;;;;;8.74;67.93;101204.91;1740355;81;20217;-74
2021/05/24 00:07:03;;;;;;;;;;;;;;;8.74;67.93;101201.05;1728585;82;20140;-74
2021/05/24 00:09:30;;;;;;;;;;;;;;;8.71;67.90;101204.91;1715507;81;20174;-74
2021/05/24 00:11:56;;;;;;;;;;;;;;;8.65;67.89;101203.62;1735490;81;20209;-74
2021/05/24 00:14:24;;;;;;;;;;;;;;;8.62;67.97;101199.31;1730179;81;20248;-74
2021/05/24 00:16:50;;;;;;;;;;;;;;;8.59;67.96;101201.46;1737528;81;20160;-74
2021/05/24 00:19:16;;;;;;;;;;;;;;;8.56;67.99;101206.61;1738044;81;20197;-74
2021/05/24 00:21:42;;;;;;;;;;;;;;;8.55;67.99;101202.31;1745312;81;20168;-74
2021/05/24 00:24:08;;;;;;;;;;;;;;;8.53;68.03;101199.30;1734164;81;20165;-74
2021/05/24 00:26:34;;;;;;;;;;;;;;;8.51;68.04;101204.45;1742998;81;20197;-74
2021/05/24 00:29:00;;;;;;;;;;;;;;;8.48;68.03;101210.03;1729998;81;20224;-74
2021/05/24 00:31:27;;;;;;;;;;;;;;;8.46;68.05;101207.45;1725349;81;20205;-74
2021/05/24 00:33:53;;;;;;;;;;;;;;;8.44;68.06;101209.16;1729152;81;20529;-74
2021/05/24 00:36:19;;;;;;;;;;;;;;;8.41;68.03;101209.58;1697348;83;20238;-74
2021/05/24 00:38:46;;;;;;;;;;;;;;;8.38;68.12;101210.43;1680771;84;20809;-74
2021/05/24 00:41:12;;;;;;;;;;;;;;;8.36;68.17;101209.56;1706423;83;20772;-74
2021/05/24 00:43:38;;;;;;;;;;;;;;;8.34;68.13;101215.14;1698351;83;20495;-75
2021/05/24 00:46:04;;;;;;;;;;;;;;;8.32;68.08;101212.95;1713855;83;20172;-74
2021/05/24 00:48:30;;;;;;;;;;;;;;;8.26;68.06;101209.97;1707015;83;20286;-74
2021/05/24 00:50:56;;;;;;;;;;;;;;;8.23;68.09;101212.96;1648754;85;20176;-73
2021/05/24 00:53:22;;;;;;;;;;;;;;;8.18;68.13;101215.52;1654233;85;20812;-74
2021/05/24 00:55:48;;;;;;;;;;;;;;;8.17;68.13;101218.09;1674171;83;20172;-74
2021/05/24 00:58:15;;;;;;;;;;;;;;;8.11;68.14;101212.49;1677769;83;20173;-74
2021/05/24 01:00:43;;;;;;;;;;;;;;;8.08;68.20;101209.05;1676186;84;20169;-74
2021/05/24 01:03:11;;;;;;;;;;;;;;;8.06;68.25;101215.47;1671918;85;20157;-74
2021/05/24 01:05:39;;;;;;;;;;;;;;;8.00;68.25;101206.44;1677530;84;20181;-74
2021/05/24 01:08:06;;;;;;;;;;;;;;;7.97;68.34;101204.70;1687727;84;20177;-74
2021/05/24 01:10:32;;;;;;;;;;;;;;;7.96;68.37;101212.42;1670829;84;20184;-74
2021/05/24 01:13:08;;;;;;;;;;;;;;;7.95;68.39;101210.70;1680342;84;20174;-74
2021/05/24 01:15:35;;;;;;;;;;;;;;;7.93;68.35;101205.98;1680536;84;20189;-74
2021/05/24 01:18:01;;;;;;;;;;;;;;;7.90;68.34;101208.11;1659533;84;20256;-74
2021/05/24 01:20:28;;;;;;;;;;;;;;;7.87;68.32;101209.38;1679811;84;20201;-74
2021/05/24 01:25:33;;;;;;;;;;;;;;;7.80;68.34;101217.10;1669255;84;20175;-74
2021/05/24 01:28:00;;;;;;;;;;;;;;;7.78;68.37;101217.09;1659775;84;20166;-74
2021/05/24 01:30:26;;;;;;;;;;;;;;;7.73;68.41;101217.49;1681528;84;20171;-74
2021/05/24 01:32:52;;;;;;;;;;;;;;;7.72;68.42;101214.91;1652566;84;20192;-74
2021/05/24 01:35:21;;;;;;;;;;;;;;;7.70;68.45;101216.62;1676753;83;20170;-74
2021/05/24 01:37:47;;;;;;;;;;;;;;;7.66;68.40;101212.30;1669800;84;20200;-74
2021/05/24 01:40:13;;;;;;;;;;;;;;;7.61;68.50;101212.28;1671221;83;20192;-74
2021/05/24 01:42:43;;;;;;;;;;;;;;;7.61;68.60;101220.00;1674496;84;20177;-74
2021/05/24 01:45:10;;;;;;;;;;;;;;;7.61;68.60;101220.00;1677031;84;20157;-74
2021/05/24 01:47:39;;;;;;;;;;;;;;;7.59;68.53;101221.28;1655272;85;20196;-74
2021/05/24 01:50:06;;;;;;;;;;;;;;;7.52;68.45;101216.08;1700613;83;20169;-74
2021/05/24 01:52:32;;;;;;;;;;;;;;;7.49;68.64;101216.06;1713966;83;20180;-74
2021/05/24 01:55:00;;;;;;;;;;;;;;;7.49;68.69;101219.92;1709138;83;20159;-74
2021/05/24 01:57:26;;;;;;;;;;;;;;;7.47;68.71;101217.34;1716389;83;20190;-74
2021/05/24 01:59:53;;;;;;;;;;;;;;;7.49;68.71;101217.34;1715251;83;20213;-74
2021/05/24 02:02:19;;;;;;;;;;;;;;;7.48;68.72;101222.92;1714788;83;20175;-74
2021/05/24 02:04:45;;;;;;;;;;;;;;;7.49;68.74;101221.20;1712881;83;20180;-74
2021/05/24 02:07:11;;;;;;;;;;;;;;;7.44;68.78;101213.45;1722013;83;20172;-74
2021/05/24 02:09:50;;;;;;;;;;;;;;;7.45;68.93;101215.18;1711546;82;20205;-74
2021/05/24 02:12:16;;;;;;;;;;;;;;;7.49;69.08;101207.05;1715987;83;20218;-73
2021/05/24 02:14:43;;;;;;;;;;;;;;;7.53;69.08;101204.94;1724088;83;20176;-74
2021/05/24 02:17:09;;;;;;;;;;;;;;;7.57;69.10;101202.81;1704815;83;20185;-74
2021/05/24 02:19:36;;;;;;;;;;;;;;;7.60;69.07;101202.84;1698958;83;20172;-74
2021/05/24 02:22:02;;;;;;;;;;;;;;;7.62;69.13;101210.14;1712802;83;20166;-74
2021/05/24 02:24:29;;;;;;;;;;;;;;;7.66;69.20;101204.16;1719683;83;20509;-73
2021/05/24 02:26:55;;;;;;;;;;;;;;;7.70;69.20;101217.48;1708783;83;20202;-73
2021/05/24 02:29:20;;;;;;;;;;;;;;;7.70;69.17;101217.48;1703169;83;20193;-74
2021/05/24 02:31:47;;;;;;;;;;;;;;;7.74;69.34;101222.22;1726454;83;20178;-73
2021/05/24 02:34:12;;;;;;;;;;;;;;;7.79;69.37;101218.81;1712193;82;20280;-73
2021/05/24 02:36:39;;;;;;;;;;;;;;;7.83;69.44;101220.52;1699766;83;20281;-74
2021/05/24 02:39:08;;;;;;;;;;;;;;;7.89;69.50;101214.11;1708351;83;20184;-74
2021/05/24 02:41:35;;;;;;;;;;;;;;;7.96;69.52;101211.14;1700680;82;20296;-74
2021/05/24 02:44:02;;;;;;;;;;;;;;;8.00;69.53;101210.73;1720840;83;20237;-74
2021/05/24 02:46:28;;;;;;;;;;;;;;;8.06;69.62;101214.62;1714168;83;20218;-74
2021/05/24 02:48:54;;;;;;;;;;;;;;;8.10;69.60;101213.77;1721149;83;20277;-74
2021/05/24 02:51:21;;;;;;;;;;;;;;;8.15;69.63;101211.65;1717026;82;20313;-75
2021/05/24 02:53:46;;;;;;;;;;;;;;;8.20;69.73;101211.66;1710560;82;20222;-74
2021/05/24 02:56:15;;;;;;;;;;;;;;;8.27;69.74;101215.98;1710599;83;20319;-74
2021/05/24 02:58:41;;;;;;;;;;;;;;;8.34;69.76;101219.02;1715491;83;20186;-74
2021/05/24 03:01:09;;;;;;;;;;;;;;;8.39;69.77;101213.44;1718109;83;20232;-74
2021/05/24 03:03:35;;;;;;;;;;;;;;;8.45;69.76;101208.73;1708840;83;20286;-74
2021/05/24 03:06:03;;;;;;;;;;;;;;;8.49;69.83;101205.30;1707967;83;20193;-74
2021/05/24 03:08:30;;;;;;;;;;;;;;;8.55;69.85;101208.75;1703008;83;20165;-74
2021/05/24 03:10:57;;;;;;;;;;;;;;;8.59;69.84;101210.48;1722567;82;20169;-74
2021/05/24 03:13:28;;;;;;;;;;;;;;;8.64;69.88;101202.75;1713636;83;20200;-74
2021/05/24 03:15:51;;;;;;;;;;;;;;;8.68;69.88;101210.06;1720680;83;20149;-74
2021/05/24 03:18:17;;;;;;;;;;;;;;;8.74;69.94;101210.08;1717363;83;20182;-74
2021/05/24 03:20:43;;;;;;;;;;;;;;;8.78;69.90;101220.83;1716884;83;20175;-74
2021/05/24 03:23:09;;;;;;;;;;;;;;;8.80;69.92;101218.67;1711453;82;20218;-74
2021/05/24 03:25:37;;;;;;;;;;;;;;;8.82;69.76;101217.39;1705189;83;20203;-74
2021/05/24 03:28:04;;;;;;;;;;;;;;;8.79;69.85;101223.41;1717852;82;20198;-74
2021/05/24 03:30:30;;;;;;;;;;;;;;;8.81;69.87;101223.41;1704936;83;20539;-74
2021/05/24 03:32:56;;;;;;;;;;;;;;;8.83;69.91;101222.98;1715955;83;20180;-74
2021/05/24 03:35:22;;;;;;;;;;;;;;;8.85;69.83;101230.25;1707413;83;20192;-74
2021/05/24 03:37:48;;;;;;;;;;;;;;;8.86;69.80;101234.55;1702239;83;20202;-74
2021/05/24 03:40:16;;;;;;;;;;;;;;;8.85;69.85;101225.95;1705964;83;20187;-74
2021/05/24 03:42:43;;;;;;;;;;;;;;;8.86;69.85;101221.66;1716909;83;20165;-74
2021/05/24 03:45:13;;;;;;;;;;;;;;;8.86;69.87;101222.52;1716230;83;20141;-73
2021/05/24 03:47:39;;;;;;;;;;;;;;;8.86;69.91;101217.36;1716812;82;20157;-74
2021/05/24 03:50:06;;;;;;;;;;;;;;;8.87;69.92;101216.50;1724374;83;20173;-74
2021/05/24 03:52:32;;;;;;;;;;;;;;;8.88;69.96;101213.06;1724833;82;20206;-74
2021/05/24 03:54:58;;;;;;;;;;;;;;;8.92;69.99;101213.50;1724815;81;20194;-74
2021/05/24 03:57:24;;;;;;;;;;;;;;;8.94;70.03;101213.06;1718320;82;20206;-74
2021/05/24 03:59:54;;;;;;;;;;;;;;;8.99;70.06;101219.52;1720589;83;20202;-74
2021/05/24 04:02:20;;;;;;;;;;;;;;;9.08;70.30;101216.94;1735039;81;20185;-74
2021/05/24 04:04:46;;;;;;;;;;;;;;;9.27;70.39;101221.23;1718528;81;20178;-74
2021/05/24 04:07:19;;;;;;;;;;;;;;;9.51;70.49;101218.16;1733076;81;20164;-74
2021/05/24 04:09:42;;;;;;;;;;;;;;;9.79;70.51;101213.36;1719195;82;20476;-74
2021/05/24 04:12:08;;;;;;;;;;;;;;;10.02;70.30;101217.13;1719368;82;20219;-74
2021/05/24 04:14:34;;;;;;;;;;;;;;;10.13;70.02;101221.81;1715992;81;20288;-74
2021/05/24 04:17:00;;;;;;;;;;;;;;;10.16;69.91;101223.52;1726032;82;20254;-75
2021/05/24 04:19:26;;;;;;;;;;;;;;;10.18;69.86;101228.25;1729222;82;20405;-74
2021/05/24 04:21:52;;;;;;;;;;;;;;;10.19;69.90;101231.27;1726161;82;20357;-74
2021/05/24 04:24:18;;;;;;;;;;;;;;;10.18;69.74;101233.42;1724097;81;20420;-74
2021/05/24 04:26:44;;;;;;;;;;;;;;;10.14;69.86;101239.47;1708085;81;20645;-74
2021/05/24 04:29:10;;;;;;;;;;;;;;;10.13;69.89;101239.05;1708193;81;20542;-74
2021/05/24 04:31:38;;;;;;;;;;;;;;;10.14;69.96;101248.08;1726828;81;20569;-74
2021/05/24 04:34:04;;;;;;;;;;;;;;;10.17;70.04;101248.50;1711395;82;20288;-75
2021/05/24 04:36:31;;;;;;;;;;;;;;;10.22;70.04;101250.67;1712085;82;20254;-74
2021/05/24 04:38:57;;;;;;;;;;;;;;;10.25;70.01;101254.10;1722084;82;20222;-75
2021/05/24 04:41:23;;;;;;;;;;;;;;;10.28;70.04;101252.80;1712612;82;20550;-74
2021/05/24 04:43:51;;;;;;;;;;;;;;;10.34;70.09;101248.47;1721888;83;20252;-74
2021/05/24 04:46:17;;;;;;;;;;;;;;;10.39;70.01;101250.59;1722765;82;20191;-74
2021/05/24 04:48:43;;;;;;;;;;;;;;;10.41;69.99;101251.41;1720311;82;20305;-74
2021/05/24 04:51:09;;;;;;;;;;;;;;;10.44;70.09;101241.05;1713768;82;20219;-74
2021/05/24 04:53:35;;;;;;;;;;;;;;;10.51;70.20;101244.03;1716774;83;20226;-74
2021/05/24 04:56:01;;;;;;;;;;;;;;;10.61;70.27;101245.27;1721637;82;20554;-74
2021/05/24 04:58:27;;;;;;;;;;;;;;;10.77;70.45;101244.73;1721804;82;20232;-74
2021/05/24 05:00:53;;;;;;;;;;;;;;;11.11;70.66;101246.61;1715472;82;20226;-75
2021/05/24 05:03:19;;;;;;;;;;;;;;;11.69;71.01;101247.78;1732547;81;20776;-75
2021/05/24 05:05:45;;;;;;;;;;;;;;;12.44;70.91;101244.73;1724187;81;20837;-75
2021/05/24 05:08:13;;;;;;;;;;;;;;;13.21;70.71;101250.91;1723813;81;20344;-75
2021/05/24 05:10:38;;;;;;;;;;;;;;;13.85;70.29;101251.03;1724367;81;20357;-75
2021/05/24 05:13:04;;;;;;;;;;;;;;;14.51;70.09;101254.00;1717988;82;20439;-75
2021/05/24 05:15:30;;;;;;;;;;;;;;;15.02;69.59;101254.98;1709212;81;20204;-74
2021/05/24 05:17:56;;;;;;;;;;;;;;;15.61;69.69;101259.11;1719261;81;20248;-74
2021/05/24 05:20:29;;;;;;;;;;;;;;;16.27;69.21;101255.50;1717103;82;20566;-74
2021/05/24 05:22:55;;;;;;;;;;;;;;;16.77;68.96;101253.13;1719685;82;20287;-74
2021/05/24 05:25:21;;;;;;;;;;;;;;;17.26;68.89;101255.44;1718914;81;20190;-75
2021/05/24 05:27:47;;;;;;;;;;;;;;;17.85;68.60;101249.00;1716707;82;20279;-75
2021/05/24 05:30:13;;;;;;;;;;;;;;;18.35;67.97;101260.66;1709952;82;20355;-75
2021/05/24 05:32:40;;;;;;;;;;;;;;;18.76;68.08;101260.37;1717920;82;20176;-75
2021/05/24 05:35:07;;;;;;;;;;;;;;;19.30;67.76;101266.03;1723259;82;20325;-75
2021/05/24 05:37:36;;;;;;;;;;;;;;;19.71;67.26;101260.37;1716317;82;20221;-75
2021/05/24 05:40:06;;;;;;;;;;;;;;;20.06;67.41;101257.02;1722118;82;20174;-75
2021/05/24 05:42:32;;;;;;;;;;;;;;;20.48;67.07;101254.66;1724155;81;20167;-75
2021/05/24 05:44:58;;;;;;;;;;;;;;;20.98;67.36;101256.16;1719829;81;20238;-75
2021/05/24 05:47:24;;;;;;;;;;;;;;;21.56;67.05;101253.24;1730963;81;20173;-75
2021/05/24 05:49:50;;;;;;;;;;;;;;;21.91;66.46;101257.95;1736018;82;20173;-75
2021/05/24 05:52:18;;;;;;;;;;;;;;;22.08;66.42;101256.63;1725563;82;20184;-75
2021/05/24 05:54:45;;;;;;;;;;;;;;;22.34;66.39;101266.23;1719424;82;20175;-75
2021/05/24 05:57:12;;;;;;;;;;;;;;;22.48;65.99;101258.85;1717495;82;20163;-76
2021/05/24 05:59:38;;;;;;;;;;;;;;;22.69;66.15;101267.73;1719658;82;20210;-76
2021/05/24 06:02:03;;;;;;;;;;;;;;;22.99;66.29;101258.56;1722317;82;20746;-76
2021/05/24 06:04:29;;;;;;;;;;;;;;;23.14;65.50;101261.26;1715569;82;20196;-76
2021/05/24 06:06:56;;;;;;;;;;;;;;;23.42;65.57;101267.44;1710177;82;20144;-76
2021/05/24 06:09:40;;;;;;;;;;;;;;;23.80;65.59;101267.45;1712946;82;20499;-76
2021/05/24 06:12:12;;;;;;;;;;;;;;;24.08;65.24;101274.03;1717266;82;20186;-76
2021/05/24 06:14:38;;;;;;;;;;;;;;;24.37;65.42;101276.22;1731146;82;20194;-76
2021/05/24 06:17:05;;;;;;;;;;;;;;;24.51;64.88;101276.16;1716599;82;20176;-76
2021/05/24 06:19:32;;;;;;;;;;;;;;;24.78;64.56;101280.63;1714818;82;20190;-76
2021/05/24 06:21:58;;;;;;;;;;;;;;;24.58;63.97;101282.76;1724131;82;20628;-76
2021/05/24 06:24:24;;;;;;;;;;;;;;;24.41;64.85;101291.78;1721824;81;20181;-76
2021/05/24 06:26:50;;;;;;;;;;;;;;;24.24;63.98;101295.08;1704011;82;20233;-76
2021/05/24 06:29:22;;;;;;;;;;;;;;;24.12;63.81;101297.16;1707110;81;20215;-76
2021/05/24 06:31:44;;;;;;;;;;;;;;;24.22;64.05;101295.17;1715902;81;20161;-76
2021/05/24 06:34:10;;;;;;;;;;;;;;;24.14;63.08;101304.05;1724632;82;20151;-76
2021/05/24 06:36:36;;;;;;;;;;;;;;;24.13;62.80;101303.66;1719928;83;20166;-76
2021/05/24 06:39:03;;;;;;;;;;;;;;;24.13;62.56;101310.27;1709926;82;20269;-76
2021/05/24 06:41:29;;;;;;;;;;;;;;;24.16;62.06;101311.87;1717733;82;20210;-76
2021/05/24 06:43:55;;;;;;;;;;;;;;;24.05;61.79;101310.73;1720453;82;20167;-76
2021/05/24 06:46:21;;;;;;;;;;;;;;;24.07;61.81;101315.93;1713603;82;20200;-76
2021/05/24 06:48:47;;;;;;;;;;;;;;;24.23;61.45;101316.69;1712889;82;20158;-76
2021/05/24 06:51:23;;;;;;;;;;;;;;;24.41;61.32;101312.94;1718846;83;20164;-76
2021/05/24 06:53:49;;;;;;;;;;;;;;;24.40;60.85;101309.92;1709577;82;20191;-76
2021/05/24 06:56:15;;;;;;;;;;;;;;;24.45;60.88;101312.24;1715820;83;20222;-76
2021/05/24 06:59:00;;;;;;;;;;;;;;;24.61;60.69;101314.30;1710573;83;20171;-76
2021/05/24 07:01:26;;;;;;;;;;;;;;;24.73;60.25;101308.23;1713378;83;20170;-76
2021/05/24 07:03:52;;;;;;;;;;;;;;;24.81;60.10;101317.00;1715085;82;20198;-76
2021/05/24 07:06:18;;;;;;;;;;;;;;;24.87;59.95;101316.60;1715430;82;20200;-76
2021/05/24 07:08:44;;;;;;;;;;;;;;;25.05;59.57;101309.27;1714405;83;20156;-76
2021/05/24 07:11:24;;;;;;;;;;;;;;;25.27;59.56;101317.50;1710602;82;20427;-76
2021/05/24 07:13:50;;;;;;;;;;;;;;;25.42;58.86;101310.34;1712804;83;20241;-76
2021/05/24 07:16:16;;;;;;;;;;;;;;;25.58;58.81;101304.83;1708314;83;20206;-76
2021/05/24 07:18:44;;;;;;;;;;;;;;;25.75;58.74;101316.95;1714841;83;20213;-76
2021/05/24 07:21:10;;;;;;;;;;;;;;;25.75;58.31;101316.95;1711675;83;20257;-76
2021/05/24 07:23:36;;;;;;;;;;;;;;;25.83;58.30;101310.66;1711482;83;20250;-76
2021/05/24 07:26:02;;;;;;;;;;;;;;;25.93;58.51;101307.75;1716001;83;20336;-76
2021/05/24 07:28:28;;;;;;;;;;;;;;;25.89;58.21;101317.71;1717196;83;20211;-76
2021/05/24 07:30:55;;;;;;;;;;;;;;;25.97;57.86;101315.86;1718363;83;20190;-76
2021/05/24 07:33:20;;;;;;;;;;;;;;;26.05;57.67;101313.02;1713832;83;20550;-76
2021/05/24 07:35:46;;;;;;;;;;;;;;;26.20;57.62;101314.22;1706446;83;20743;-76
2021/05/24 07:38:12;;;;;;;;;;;;;;;26.31;57.09;101315.67;1714458;83;20246;-76
2021/05/24 07:40:39;;;;;;;;;;;;;;;26.19;56.63;101319.16;1708968;83;20214;-76
2021/05/24 07:43:05;;;;;;;;;;;;;;;26.18;56.60;101315.66;1708291;83;20191;-76
2021/05/24 07:45:31;;;;;;;;;;;;;;;26.11;56.08;101308.23;1714370;83;20227;-76
2021/05/24 07:47:57;;;;;;;;;;;;;;;25.96;55.37;101311.03;1710778;83;20198;-77
2021/05/24 07:50:24;;;;;;;;;;;;;;;25.74;55.49;101308.16;1714780;82;20253;-77
2021/05/24 07:52:50;;;;;;;;;;;;;;;25.52;54.72;101306.09;1712606;82;20171;-78
2021/05/24 07:55:16;;;;;;;;;;;;;;;25.27;54.57;101300.29;1714405;83;20542;-78
2021/05/24 07:57:42;;;;;;;;;;;;;;;25.07;54.97;101302.08;1709055;83;20170;-77
2021/05/24 08:00:10;;;;;;;;;;;;;;;24.97;54.26;101300.98;1712715;83;20215;-77
2021/05/24 08:02:41;;;;;;;;;;;;;;;24.94;54.21;101299.86;1710820;83;20373;-77
2021/05/24 08:05:09;;;;;;;;;;;;;;;24.79;53.68;101299.05;1718045;83;20192;-78
2021/05/24 08:07:35;;;;;;;;;;;;;;;24.71;53.83;101295.58;1698110;83;20169;-77
2021/05/24 08:10:02;;;;;;;;;;;;;;;24.59;53.39;101288.89;1707750;83;20490;-77
2021/05/24 08:12:28;;;;;;;;;;;;;;;24.51;53.05;101292.02;1706505;83;20542;-77
2021/05/24 08:15:00;;;;;;;;;;;;;;;24.28;52.99;101296.14;1711545;83;20596;-77
2021/05/24 08:17:26;;;;;;;;;;;;;;;24.23;52.92;101288.09;1712077;82;20687;-77
2021/05/24 08:19:52;;;;;;;;;;;;;;;24.17;53.29;101281.39;1710922;83;20206;-77
2021/05/24 08:22:20;;;;;;;;;;;;;;;24.09;52.83;101267.80;1709812;83;20183;-77
2021/05/24 08:24:47;;;;;;;;;;;;;;;24.04;52.40;101261.95;1703673;83;20219;-78
2021/05/24 08:27:13;;;;;;;;;;;;;;;24.01;52.41;101249.78;1708890;83;20801;-77
2021/05/24 08:29:39;;;;;;;;;;;;;;;24.02;52.40;101247.52;1713781;83;20185;-77
2021/05/24 08:32:05;;;;;;;;;;;;;;;23.97;52.25;101245.62;1701894;83;20257;-77
2021/05/24 08:34:31;;;;;;;;;;;;;;;23.81;52.16;101244.91;1714494;83;20545;-77
2021/05/24 08:36:57;;;;;;;;;;;;;;;23.68;51.72;101243.95;1700918;82;20172;-77
2021/05/24 08:39:23;;;;;;;;;;;;;;;23.56;51.92;101240.26;1714900;83;20612;-77
2021/05/24 08:41:51;;;;;;;;;;;;;;;23.53;51.69;101246.16;1719467;83;20214;-77
2021/05/24 08:44:18;;;;;;;;;;;;;;;23.37;51.44;101242.30;1709967;83;20193;-78
2021/05/24 08:46:44;;;;;;;;;;;;;;;23.12;51.29;101240.23;1703045;83;20599;-77
2021/05/24 08:49:10;;;;;;;;;;;;;;;22.86;51.16;101236.50;1716370;82;20184;-77
2021/05/24 08:51:36;;;;;;;;;;;;;;;22.54;51.05;101229.52;1706116;83;20205;-77
2021/05/24 08:54:04;;;;;;;;;;;;;;;22.42;51.27;101216.56;1707213;81;20159;-77
2021/05/24 08:56:30;;;;;;;;;;;;;;;22.61;50.96;101222.50;1730471;82;20441;-77
2021/05/24 08:59:00;;;;;;;;;;;;;;;22.54;50.98;101217.19;1722877;81;20570;-77
2021/05/24 09:01:27;;;;;;;;;;;;;;;22.40;51.06;101217.11;1725775;81;20579;-77
2021/05/24 09:04:00;;;;;;;;;;;;;;;22.67;50.88;101211.61;1718630;81;20484;-77
2021/05/24 09:06:44;;;;;;;;;;;;;;;22.82;50.82;101207.28;1720343;82;20210;-78
2021/05/24 09:09:12;;;;;;;;;;;;;;;23.55;50.15;101211.30;1655112;84;20497;-78
2021/05/24 09:11:39;;;;;;;;;;;;;;;22.99;50.31;101201.00;1731656;81;20263;-78
2021/05/24 09:14:14;;;;;;;;;;;;;;;22.89;50.25;101207.75;1708827;81;20622;-78
2021/05/24 09:17:00;;;;;;;;;;;;;;;22.50;50.10;101201.17;1736930;81;20841;-78
2021/05/24 09:19:28;;;;;;;;;;;;;;;22.06;50.00;101195.28;1740857;81;20194;-78
2021/05/24 09:21:58;;;;;;;;;;;;;;;21.73;49.97;101199.72;1730713;81;20572;-78
2021/05/24 09:24:29;;;;;;;;;;;;;;;21.69;50.09;101193.77;1726050;82;20525;-78
2021/05/24 09:26:57;;;;;;;;;;;;;;;21.56;49.55;101195.34;1743815;81;20164;-78
2021/05/24 09:29:29;;;;;;;;;;;;;;;21.38;49.65;101200.23;1721015;81;20524;-77
2021/05/24 09:32:12;;;;;;;;;;;;;;;21.18;49.39;101193.37;1720930;82;20156;-77
2021/05/24 09:34:41;;;;;;;;;;;;;;;21.04;49.50;101190.58;1675975;84;20608;-77
2021/05/24 09:37:08;;;;;;;;;;;;;;;21.05;49.46;101194.91;1701954;82;20224;-77
2021/05/24 09:39:34;;;;;;;;;;;;;;;21.08;49.45;101185.55;1720632;81;20161;-77
2021/05/24 09:42:14;;;;;;;;;;;;;;;21.10;49.48;101195.06;1730376;81;20518;-77
2021/05/24 09:44:53;;;;;;;;;;;;;;;21.04;49.01;101191.89;1727111;81;20540;-77
2021/05/24 09:47:34;;;;;;;;;;;;;;;20.94;49.25;101189.33;1734196;81;20798;-77
2021/05/24 09:50:10;;;;;;;;;;;;;;;20.82;48.87;101189.48;1708427;83;20534;-77
2021/05/24 09:52:38;;;;;;;;;;;;;;;20.61;48.75;101190.55;1724564;81;20189;-77
2021/05/24 09:55:18;;;;;;;;;;;;;;;20.43;48.79;101194.91;1712858;81;20498;-77
2021/05/24 09:58:02;;;;;;;;;;;;;;;20.37;48.79;101194.70;1734109;81;20465;-77
2021/05/24 10:00:43;;;;;;;;;;;;;;;20.31;48.83;101179.70;1725537;81;20580;-77
2021/05/24 10:03:10;;;;;;;;;;;;;;;20.27;48.64;101173.77;1707656;82;20620;-77
2021/05/24 10:05:46;;;;;;;;;;;;;;;20.21;48.47;101171.89;1726604;81;20576;-77
2021/05/24 10:08:12;;;;;;;;;;;;;;;20.12;48.48;101164.84;1684693;83;20624;-77
2021/05/24 10:10:38;;;;;;;;;;;;;;;20.11;48.56;101155.72;1680495;84;20654;-77
2021/05/24 10:13:05;;;;;;;;;;;;;;;20.18;48.73;101156.28;1724566;82;20490;-77
2021/05/24 10:15:31;;;;;;;;;;;;;;;20.26;48.69;101162.02;1725364;81;20194;-77
2021/05/24 10:18:02;;;;;;;;;;;;;;;20.39;48.70;101157.43;1730668;81;20174;-78
2021/05/24 10:20:30;;;;;;;;;;;;;;;20.43;48.43;101157.67;1706982;81;20166;-78
2021/05/24 10:22:56;;;;;;;;;;;;;;;20.42;48.30;101159.91;1713400;81;20556;-78
2021/05/24 10:25:25;;;;;;;;;;;;;;;20.45;48.13;101163.70;1720626;81;20566;-78
2021/05/24 10:27:52;;;;;;;;;;;;;;;20.45;48.34;101165.48;1708476;82;20832;-78
2021/05/24 10:30:19;;;;;;;;;;;;;;;20.43;48.14;101158.98;1730734;81;20583;-77
2021/05/24 10:32:59;;;;;;;;;;;;;;;20.48;48.36;101162.24;1722618;81;20193;-77
2021/05/24 10:35:39;;;;;;;;;;;;;;;20.57;48.50;101166.66;1723550;81;20652;-77
2021/05/24 10:38:27;;;;;;;;;;;;;;;20.59;48.32;101168.75;1723296;81;20822;-77
2021/05/24 10:41:13;;;;;;;;;;;;;;;20.62;48.34;101162.89;1710127;82;20548;-77
2021/05/24 10:43:50;;;;;;;;;;;;;;;20.72;48.37;101161.98;1732559;81;20501;-78
2021/05/24 10:46:32;;;;;;;;;;;;;;;20.81;48.23;101168.06;1716442;81;20518;-77
2021/05/24 10:49:04;;;;;;;;;;;;;;;20.84;48.28;101160.02;1730413;81;20190;-78
2021/05/24 10:51:51;;;;;;;;;;;;;;;20.85;48.21;101160.41;1731398;81;20614;-77
2021/05/24 10:54:21;;;;;;;;;;;;;;;20.78;48.02;101150.70;1710036;81;20205;-78
2021/05/24 10:57:03;;;;;;;;;;;;;;;20.78;48.17;101149.84;1664205;85;20542;-78
2021/05/24 10:59:42;;;;;;;;;;;;;;;20.75;47.93;101144.28;1667260;84;20205;-78
2021/05/24 11:02:20;;;;;;;;;;;;;;;20.84;47.99;101156.08;1670879;83;20501;-78
2021/05/24 11:04:55;;;;;;;;;;;;;;;20.91;47.99;101148.27;1687029;84;20633;-78
2021/05/24 11:07:28;;;;;;;;;;;;;;;21.06;48.21;101144.88;1680481;84;20153;-78
2021/05/24 11:10:13;;;;;;;;;;;;;;;21.19;48.10;101144.24;1669435;84;20194;-78
2021/05/24 11:12:40;;;;;;;;;;;;;;;21.18;47.72;101137.28;1676952;84;20161;-78
2021/05/24 11:15:12;;;;;;;;;;;;;;;21.22;47.91;101130.97;1657031;84;20483;-78
2021/05/24 11:18:02;;;;;;;;;;;;;;;21.17;47.75;101129.86;1677244;84;20559;-78
2021/05/24 11:20:32;;;;;;;;;;;;;;;21.05;47.61;101127.85;1672079;84;20172;-78
2021/05/24 11:23:29;;;;;;;;;;;;;;;20.95;47.67;101116.95;1680653;84;20200;-78
2021/05/24 11:25:54;;;;;;;;;;;;;;;20.96;47.77;101116.49;1660358;85;20173;-78
2021/05/24 11:28:40;;;;;;;;;;;;;;;20.99;47.64;101114.56;1703827;83;20217;-78
2021/05/24 11:31:17;;;;;;;;;;;;;;;21.04;47.42;101103.80;1714731;83;20295;-77
2021/05/24 11:33:50;;;;;;;;;;;;;;;20.94;47.20;101098.63;1708866;83;20270;-77
2021/05/24 11:36:42;;;;;;;;;;;;;;;20.83;47.27;101090.83;1720920;83;20227;-78
2021/05/24 11:39:20;;;;;;;;;;;;;;;20.77;47.21;101083.28;1667841;84;20577;-78
2021/05/24 11:41:56;;;;;;;;;;;;;;;20.79;47.42;101081.89;1692150;82;20190;-78
2021/05/24 11:44:25;;;;;;;;;;;;;;;20.80;47.20;101073.89;1707411;82;20435;-79
2021/05/24 11:46:54;;;;;;;;;;;;;;;20.86;47.11;101077.98;1711548;83;20191;-79
2021/05/24 11:49:32;;;;;;;;;;;;;;;20.82;46.95;101072.50;1708386;83;20234;-79
2021/05/24 11:51:59;;;;;;;;;;;;;;;20.67;46.80;101075.94;1708300;83;20267;-79
2021/05/24 11:54:26;;;;;;;;;;;;;;;20.58;47.15;101074.63;1709243;82;20314;-79
2021/05/24 11:56:55;;;;;;;;;;;;;;;20.58;46.99;101072.00;1714713;81;20285;-79
2021/05/24 11:59:23;;;;;;;;;;;;;;;20.58;46.83;101078.56;1722760;81;20190;-79
2021/05/24 12:01:51;;;;;;;;;;;;;;;20.56;46.89;101068.59;1726324;82;20255;-79
2021/05/24 12:04:20;;;;;;;;;;;;;;;20.61;46.61;101077.56;1715092;82;20518;-79
2021/05/24 12:07:06;;;;;;;;;;;;;;;20.65;47.05;101075.16;1715680;82;20345;-79
2021/05/24 12:09:41;;;;;;;;;;;;;;;20.72;46.61;101074.78;1721022;81;20278;-79
2021/05/24 12:12:22;;;;;;;;;;;;;;;20.81;46.64;101074.28;1720330;82;20290;-79
2021/05/24 12:15:00;;;;;;;;;;;;;;;20.95;46.72;101063.52;1699998;82;20318;-79
2021/05/24 12:17:32;;;;;;;;;;;;;;;21.10;46.46;101064.04;1720398;83;20262;-79
2021/05/24 12:20:03;;;;;;;;;;;;;;;21.06;46.39;101063.81;1721444;82;20206;-79
2021/05/24 12:22:32;;;;;;;;;;;;;;;20.96;46.23;101054.70;1710607;82;20245;-79
2021/05/24 12:24:58;;;;;;;;;;;;;;;20.83;46.41;101034.31;1721077;83;20616;-79
2021/05/24 12:27:27;;;;;;;;;;;;;;;20.74;46.13;101037.91;1721937;82;20248;-79
2021/05/24 12:30:10;;;;;;;;;;;;;;;20.71;46.37;101040.69;1715410;82;20623;-79
2021/05/24 12:32:47;;;;;;;;;;;;;;;20.79;46.23;101030.64;1720478;82;20183;-79
2021/05/24 12:35:18;;;;;;;;;;;;;;;20.81;46.17;101021.71;1717292;81;20191;-79
2021/05/24 12:37:51;;;;;;;;;;;;;;;20.87;46.10;101011.80;1726203;81;20161;-79
2021/05/24 12:40:18;;;;;;;;;;;;;;;20.90;46.04;101008.55;1719608;81;20169;-79
2021/05/24 12:42:44;;;;;;;;;;;;;;;20.88;45.93;101006.47;1740304;81;20157;-79
2021/05/24 12:45:12;;;;;;;;;;;;;;;20.78;45.83;101001.34;1717280;81;20161;-79
2021/05/24 12:47:38;;;;;;;;;;;;;;;20.71;45.84;100995.55;1721960;81;20190;-79
2021/05/24 12:50:16;;;;;;;;;;;;;;;20.63;46.01;100985.90;1706779;83;20184;-79
2021/05/24 12:52:43;;;;;;;;;;;;;;;20.64;45.92;100973.61;1704112;81;20193;-79